createdAt,value
2023-05-22T00:01:26.678Z,15.31
2023-05-22T00:03:54.696Z,15.45
2023-05-22T00:06:22.425Z,15.20
2023-05-22T00:08:49.323Z,15.27
2023-05-22T00:11:16.758Z,15.32
2023-05-22T00:13:43.651Z,15.33
2023-05-22T00:16:10.550Z,15.39
2023-05-22T00:18:37.461Z,15.30
2023-05-22T00:21:04.778Z,15.17
2023-05-22T00:23:31.704Z,15.48
2023-05-22T00:25:58.531Z,15.59
2023-05-22T00:28:25.433Z,15.39
2023-05-22T00:30:52.486Z,15.45
2023-05-22T00:33:19.528Z,15.61
2023-05-22T00:35:48.696Z,15.09
2023-05-22T00:38:38.012Z,15.39
2023-05-22T00:41:06.628Z,15.56
2023-05-22T00:43:34.362Z,15.23
2023-05-22T00:46:01.311Z,15.21
2023-05-22T00:48:28.500Z,15.09
2023-05-22T00:50:57.345Z,15.19
2023-05-22T00:53:25.501Z,15.42
2023-05-22T00:55:54.132Z,15.10
2023-05-22T00:58:21.965Z,15.33
2023-05-22T01:00:48.968Z,14.92
2023-05-22T01:03:16.776Z,15.40
2023-05-22T01:05:43.864Z,15.10
2023-05-22T01:08:11.406Z,15.04
2023-05-22T01:10:40.462Z,15.40
2023-05-22T01:13:29.021Z,15.48
2023-05-22T01:16:02.042Z,15.52
2023-05-22T01:18:32.363Z,16.29
2023-05-22T01:21:30.569Z,15.74
2023-05-22T01:24:00.399Z,15.52
2023-05-22T01:27:04.821Z,15.28
2023-05-22T01:30:00.738Z,15.31
2023-05-22T01:32:29.698Z,15.75
2023-05-22T01:35:01.295Z,15.58
2023-05-22T01:37:28.857Z,15.18
2023-05-22T01:39:56.558Z,15.14
2023-05-22T01:42:23.990Z,15.33
2023-05-22T01:44:51.023Z,15.44
2023-05-22T01:47:18.328Z,15.42
2023-05-22T01:49:47.574Z,15.49
2023-05-22T01:52:53.632Z,15.30
2023-05-22T01:55:29.362Z,15.44
2023-05-22T01:58:13.681Z,15.49
2023-05-22T02:00:44.051Z,15.46
2023-05-22T02:03:19.402Z,15.26
2023-05-22T02:05:50.772Z,15.36
2023-05-22T02:08:19.001Z,15.22
2023-05-22T02:10:47.145Z,15.14
2023-05-22T02:13:14.776Z,15.36
2023-05-22T02:15:45.415Z,15.04
2023-05-22T02:18:15.352Z,14.99
2023-05-22T02:20:51.391Z,14.80
2023-05-22T02:23:18.383Z,14.94
2023-05-22T02:25:45.168Z,15.02
2023-05-22T02:28:12.216Z,14.93
2023-05-22T02:30:39.542Z,14.53
2023-05-22T02:33:06.800Z,14.90
2023-05-22T02:35:33.628Z,15.13
2023-05-22T02:38:00.717Z,14.99
2023-05-22T02:40:27.704Z,14.75
2023-05-22T02:42:55.024Z,14.66
2023-05-22T02:45:22.294Z,14.93
2023-05-22T02:47:49.188Z,15.11
2023-05-22T02:50:16.439Z,15.45
2023-05-22T02:52:45.323Z,15.07
2023-05-22T02:55:12.229Z,15.04
2023-05-22T02:57:38.978Z,14.70
2023-05-22T03:00:11.759Z,14.80
2023-05-22T03:02:39.312Z,14.97
2023-05-22T03:05:08.469Z,14.41
2023-05-22T03:07:35.551Z,14.59
2023-05-22T03:10:02.547Z,14.50
2023-05-22T03:12:29.479Z,14.51
2023-05-22T03:14:56.533Z,14.59
2023-05-22T03:17:23.325Z,14.84
2023-05-22T03:19:54.458Z,14.40
2023-05-22T03:22:21.676Z,14.80
2023-05-22T03:24:48.610Z,14.90
2023-05-22T03:27:17.474Z,14.85
2023-05-22T03:29:44.619Z,14.74
2023-05-22T03:32:11.544Z,14.54
2023-05-22T03:34:38.500Z,14.55
2023-05-22T03:37:05.524Z,14.50
2023-05-22T03:39:32.838Z,14.36
2023-05-22T03:41:59.690Z,14.94
2023-05-22T03:44:28.161Z,14.56
2023-05-22T03:46:55.102Z,15.22
2023-05-22T03:49:23.353Z,14.71
2023-05-22T03:51:50.453Z,14.91
2023-05-22T03:54:17.264Z,14.74
2023-05-22T03:56:44.375Z,14.58
2023-05-22T03:59:11.458Z,14.75
2023-05-22T04:01:39.221Z,15.13
2023-05-22T04:04:06.293Z,15.16
2023-05-22T04:06:33.351Z,15.25
2023-05-22T04:09:00.797Z,15.02
2023-05-22T04:11:30.496Z,15.15
2023-05-22T04:13:57.585Z,15.18
2023-05-22T04:16:24.443Z,15.23
2023-05-22T04:18:51.298Z,15.27
2023-05-22T04:21:19.258Z,15.55
2023-05-22T04:23:47.752Z,15.32
2023-05-22T04:26:14.535Z,15.46
2023-05-22T04:28:46.346Z,15.42
2023-05-22T04:31:16.242Z,15.82
2023-05-22T04:33:44.717Z,15.61
2023-05-22T04:36:12.684Z,16.06
2023-05-22T04:38:41.450Z,16.14
2023-05-22T04:41:11.178Z,16.51
2023-05-22T04:43:38.952Z,16.59
2023-05-22T04:46:06.956Z,16.23
2023-05-22T04:48:34.152Z,17.12
2023-05-22T04:51:02.727Z,17.60
2023-05-22T04:53:30.532Z,18.48
2023-05-22T04:55:57.583Z,18.27
2023-05-22T04:58:24.555Z,19.14
2023-05-22T05:00:52.711Z,18.96
2023-05-22T05:03:21.525Z,18.89
2023-05-22T05:05:49.475Z,19.58
2023-05-22T05:08:16.553Z,18.75
2023-05-22T05:10:43.429Z,18.71
2023-05-22T05:13:10.376Z,19.98
2023-05-22T05:15:37.367Z,19.24
2023-05-22T05:18:04.188Z,19.37
2023-05-22T05:23:15.752Z,19.39
2023-05-22T05:25:42.524Z,18.14
2023-05-22T05:28:11.722Z,20.02
2023-05-22T05:30:43.281Z,20.21
2023-05-22T05:33:10.523Z,19.24
2023-05-22T05:35:37.521Z,20.77
2023-05-22T05:38:04.288Z,21.42
2023-05-22T05:40:31.034Z,21.87
2023-05-22T05:42:57.860Z,21.96
2023-05-22T05:45:24.847Z,22.30
2023-05-22T05:47:52.177Z,20.33
2023-05-22T05:50:24.893Z,20.89
2023-05-22T05:52:51.784Z,21.36
2023-05-22T05:55:19.000Z,21.63
2023-05-22T05:57:46.004Z,21.86
2023-05-22T06:00:13.716Z,22.21
2023-05-22T06:02:40.621Z,22.48
2023-05-22T06:05:10.101Z,20.69
2023-05-22T06:07:40.107Z,20.91
2023-05-22T06:10:16.336Z,20.58
2023-05-22T06:12:43.276Z,19.86
2023-05-22T06:15:10.204Z,20.59
2023-05-22T06:17:39.491Z,20.47
2023-05-22T06:20:07.435Z,21.51
2023-05-22T06:22:34.362Z,21.81
2023-05-22T06:25:01.406Z,21.78
2023-05-22T06:27:28.629Z,21.76
2023-05-22T06:29:56.500Z,21.94
2023-05-22T06:32:23.476Z,22.31
2023-05-22T06:34:50.994Z,21.72
2023-05-22T06:37:17.806Z,21.16
2023-05-22T06:39:54.027Z,21.91
2023-05-22T06:42:21.238Z,22.45
2023-05-22T06:44:48.051Z,22.20
2023-05-22T06:47:15.085Z,21.72
2023-05-22T06:49:41.888Z,22.58
2023-05-22T06:52:08.608Z,21.93
2023-05-22T06:54:39.952Z,22.65
2023-05-22T06:57:07.016Z,22.17
2023-05-22T06:59:34.433Z,21.74
2023-05-22T07:02:01.587Z,21.44
2023-05-22T07:04:28.437Z,20.92
2023-05-22T07:06:55.257Z,20.43
2023-05-22T07:09:22.242Z,21.00
2023-05-22T07:11:49.296Z,20.48
2023-05-22T07:14:16.265Z,20.59
2023-05-22T07:16:43.104Z,20.21
2023-05-22T07:19:11.002Z,20.93
2023-05-22T07:21:38.410Z,21.13
2023-05-22T07:24:08.842Z,21.52
2023-05-22T07:26:36.616Z,22.55
2023-05-22T07:29:04.750Z,22.27
2023-05-22T07:31:32.237Z,22.57
2023-05-22T07:33:59.121Z,22.95
2023-05-22T07:36:26.169Z,22.62
2023-05-22T07:38:52.945Z,22.89
2023-05-22T07:41:19.883Z,22.09
2023-05-22T07:43:46.665Z,22.23
2023-05-22T07:46:13.530Z,22.48
2023-05-22T07:48:40.587Z,22.39
2023-05-22T07:51:07.989Z,22.07
2023-05-22T07:53:35.038Z,21.86
2023-05-22T07:56:05.152Z,23.70
2023-05-22T07:58:32.303Z,22.64
2023-05-22T08:00:59.286Z,22.79
2023-05-22T08:03:26.458Z,22.14
2023-05-22T08:05:53.486Z,22.41
2023-05-22T08:08:20.300Z,21.96
2023-05-22T08:11:03.033Z,22.43
2023-05-22T08:13:30.825Z,22.46
2023-05-22T08:16:00.672Z,22.24
2023-05-22T08:18:29.436Z,22.70
2023-05-22T08:20:56.754Z,21.78
2023-05-22T08:23:23.923Z,22.10
2023-05-22T08:25:50.720Z,22.10
2023-05-22T08:28:17.731Z,22.33
2023-05-22T08:30:44.540Z,22.49
2023-05-22T08:33:12.463Z,22.55
2023-05-22T08:35:39.472Z,22.08
2023-05-22T08:38:06.435Z,21.87
2023-05-22T08:40:42.553Z,22.02
2023-05-22T08:43:11.474Z,22.08
2023-05-22T08:45:42.702Z,22.24
2023-05-22T08:48:13.248Z,22.65
2023-05-22T08:50:43.539Z,22.74
2023-05-22T08:53:15.812Z,22.94
2023-05-22T08:55:42.936Z,22.58
2023-05-22T08:58:11.858Z,22.75
2023-05-22T09:00:38.865Z,22.24
2023-05-22T09:03:07.197Z,22.41
2023-05-22T09:05:34.510Z,22.72
2023-05-22T09:08:16.236Z,22.77
2023-05-22T09:10:46.574Z,22.89
2023-05-22T09:13:24.964Z,22.33
2023-05-22T09:15:52.299Z,22.23
2023-05-22T09:18:19.310Z,21.87
2023-05-22T09:20:46.195Z,21.87
2023-05-22T09:23:20.655Z,22.28
2023-05-22T09:25:47.971Z,22.97
2023-05-22T09:28:14.744Z,22.01
2023-05-22T09:30:42.851Z,22.20
2023-05-22T09:33:14.372Z,22.44
2023-05-22T09:35:42.296Z,22.65
2023-05-22T09:38:11.452Z,22.13
2023-05-22T09:40:40.642Z,22.15
2023-05-22T09:43:11.800Z,22.09
2023-05-22T09:45:39.669Z,22.16
2023-05-22T09:48:13.010Z,22.38
2023-05-22T09:50:40.418Z,22.15
2023-05-22T09:53:12.028Z,22.00
2023-05-22T09:55:39.717Z,22.74
2023-05-22T09:58:09.511Z,22.73
2023-05-22T10:00:37.717Z,22.12
2023-05-22T10:03:19.402Z,22.11
2023-05-22T10:05:51.812Z,22.02
2023-05-22T10:08:23.594Z,22.14
2023-05-22T10:10:55.205Z,22.53
2023-05-22T10:13:22.323Z,22.59
2023-05-22T10:15:50.164Z,23.07
2023-05-22T10:18:17.845Z,22.85
2023-05-22T10:20:47.219Z,22.76
2023-05-22T10:23:16.718Z,22.47
2023-05-22T10:25:44.783Z,22.96
2023-05-22T10:28:14.464Z,22.79
2023-05-22T10:30:42.645Z,22.54
2023-05-22T10:33:24.225Z,22.41
2023-05-22T10:35:55.569Z,22.30
2023-05-22T10:38:25.243Z,22.21
2023-05-22T10:40:52.760Z,22.21
2023-05-22T10:43:21.848Z,22.32
2023-05-22T10:45:48.737Z,22.19
2023-05-22T10:48:16.374Z,22.12
2023-05-22T10:50:53.072Z,22.60
2023-05-22T10:53:28.161Z,22.54
2023-05-22T10:56:02.651Z,22.52
2023-05-22T10:58:36.705Z,22.59
2023-05-22T11:01:11.914Z,23.07
2023-05-22T11:03:56.013Z,23.04
2023-05-22T11:06:39.578Z,22.82
2023-05-22T11:09:28.058Z,22.41
2023-05-22T11:12:17.405Z,22.43
2023-05-22T11:15:08.569Z,22.96
2023-05-22T11:17:41.717Z,23.55
2023-05-22T11:20:29.054Z,23.76
2023-05-22T11:23:04.159Z,23.22
2023-05-22T11:25:33.629Z,23.70
2023-05-22T11:28:03.546Z,24.18
2023-05-22T11:30:33.615Z,24.24
2023-05-22T11:33:01.987Z,23.04
2023-05-22T11:35:29.050Z,22.78
2023-05-22T11:37:56.589Z,23.32
2023-05-22T11:40:26.019Z,24.01
2023-05-22T11:42:53.934Z,24.45
2023-05-22T11:45:21.938Z,24.41
2023-05-22T11:47:49.258Z,24.46
2023-05-22T11:50:22.642Z,24.56
2023-05-22T11:52:57.047Z,24.47
2023-05-22T11:55:24.563Z,25.06
2023-05-22T11:57:51.431Z,24.58
2023-05-22T12:00:18.993Z,24.67
2023-05-22T12:02:49.786Z,24.39
2023-05-22T12:05:19.427Z,25.05
2023-05-22T12:07:46.468Z,25.23
2023-05-22T12:10:14.754Z,25.06
2023-05-22T12:12:43.495Z,24.91
2023-05-22T12:18:01.101Z,25.05
2023-05-22T12:20:31.601Z,24.97
2023-05-22T12:22:59.097Z,24.27
2023-05-22T12:25:34.331Z,24.36
2023-05-22T12:28:04.380Z,24.30
2023-05-22T12:30:40.937Z,23.55
2023-05-22T12:33:17.671Z,23.95
2023-05-22T12:35:44.633Z,23.57
2023-05-22T12:38:11.456Z,23.45
2023-05-22T12:40:38.545Z,23.51
2023-05-22T12:43:05.843Z,23.72
2023-05-22T12:45:32.600Z,23.68
2023-05-22T12:47:59.515Z,24.03
2023-05-22T12:50:29.442Z,23.96
2023-05-22T12:52:56.258Z,23.90
2023-05-22T12:55:23.265Z,23.50
2023-05-22T12:57:50.268Z,22.64
2023-05-22T13:00:35.553Z,22.76
2023-05-22T13:03:03.559Z,22.51
2023-05-22T13:05:30.672Z,22.37
2023-05-22T13:07:57.652Z,22.64
2023-05-22T13:10:24.917Z,22.95
2023-05-22T13:12:51.786Z,22.40
2023-05-22T13:15:18.945Z,22.67
2023-05-22T13:17:46.203Z,22.39
2023-05-22T13:20:13.731Z,23.04
2023-05-22T13:22:41.889Z,23.06
2023-05-22T13:25:09.253Z,23.74
2023-05-22T13:27:36.852Z,24.17
2023-05-22T13:30:06.483Z,24.25
2023-05-22T13:32:34.218Z,24.34
2023-05-22T13:35:01.329Z,23.98
2023-05-22T13:37:28.223Z,24.43
2023-05-22T13:39:55.354Z,24.67
2023-05-22T13:42:22.195Z,24.55
2023-05-22T13:44:51.574Z,24.44
2023-05-22T13:47:18.820Z,24.90
2023-05-22T13:49:46.169Z,25.04
2023-05-22T13:52:12.989Z,24.99
2023-05-22T13:54:40.616Z,25.11
2023-05-22T13:57:07.532Z,25.19
2023-05-22T13:59:34.501Z,24.97
2023-05-22T14:02:02.034Z,24.80
2023-05-22T14:04:28.949Z,24.52
2023-05-22T14:06:55.796Z,24.28
2023-05-22T14:09:23.442Z,23.98
2023-05-22T14:11:50.328Z,24.30
2023-05-22T14:14:23.789Z,24.40
2023-05-22T14:16:52.000Z,23.91
2023-05-22T14:19:37.822Z,23.87
2023-05-22T14:22:05.528Z,23.64
2023-05-22T14:24:32.783Z,23.70
2023-05-22T14:26:59.656Z,23.89
2023-05-22T14:29:26.681Z,23.87
2023-05-22T14:32:02.026Z,23.83
2023-05-22T14:34:29.258Z,24.26
2023-05-22T14:36:58.848Z,24.17
2023-05-22T14:39:26.281Z,23.98
2023-05-22T14:41:54.006Z,23.71
2023-05-22T14:44:22.840Z,23.68
2023-05-22T14:46:51.155Z,24.01
2023-05-22T14:49:18.205Z,24.27
2023-05-22T14:51:47.813Z,24.09
2023-05-22T14:54:21.925Z,24.02
2023-05-22T14:56:48.696Z,23.84
2023-05-22T14:59:24.366Z,23.42
2023-05-22T15:01:52.318Z,23.49
2023-05-22T15:04:19.595Z,24.12
2023-05-22T15:06:46.836Z,23.90
2023-05-22T15:09:13.853Z,24.26
2023-05-22T15:14:37.288Z,23.49
2023-05-22T15:17:10.890Z,23.62
2023-05-22T15:19:37.916Z,23.43
2023-05-22T15:22:18.294Z,23.33
2023-05-22T15:24:48.398Z,23.16
2023-05-22T15:27:15.224Z,23.33
2023-05-22T15:29:42.198Z,23.07
2023-05-22T15:32:09.709Z,23.27
2023-05-22T15:34:36.586Z,23.31
2023-05-22T15:37:03.407Z,23.32
2023-05-22T15:39:30.574Z,23.33
2023-05-22T15:42:05.902Z,23.20
2023-05-22T15:44:33.906Z,23.21
2023-05-22T15:47:00.729Z,23.17
2023-05-22T15:49:30.942Z,23.27
2023-05-22T15:51:58.629Z,23.09
2023-05-22T15:54:25.427Z,23.36
2023-05-22T15:56:52.716Z,23.33
2023-05-22T15:59:19.728Z,23.29
2023-05-22T16:01:46.745Z,23.24
2023-05-22T16:04:13.634Z,23.22
2023-05-22T16:06:40.696Z,23.17
2023-05-22T16:09:08.138Z,23.22
2023-05-22T16:11:35.028Z,22.90
2023-05-22T16:14:02.038Z,22.91
2023-05-22T16:16:28.965Z,22.77
2023-05-22T16:18:55.956Z,22.88
2023-05-22T16:21:22.880Z,23.10
2023-05-22T16:23:49.933Z,22.55
2023-05-22T16:26:17.026Z,22.49
2023-05-22T16:28:44.301Z,22.71
2023-05-22T16:31:13.058Z,22.82
2023-05-22T16:33:39.916Z,22.68
2023-05-22T16:36:07.296Z,22.67
2023-05-22T16:38:34.425Z,22.40
2023-05-22T16:41:01.455Z,22.26
2023-05-22T16:43:28.423Z,22.32
2023-05-22T16:45:55.143Z,22.12
2023-05-22T16:48:21.986Z,22.14
2023-05-22T16:50:48.937Z,21.98
2023-05-22T16:53:18.709Z,21.92
2023-05-22T16:55:45.761Z,21.97
2023-05-22T16:58:12.835Z,22.14
2023-05-22T17:00:40.518Z,22.21
2023-05-22T17:03:09.241Z,21.72
2023-05-22T17:05:36.931Z,21.85
2023-05-22T17:08:03.891Z,21.70
2023-05-22T17:10:30.823Z,21.42
2023-05-22T17:12:57.708Z,21.73
2023-05-22T17:15:24.495Z,21.50
2023-05-22T17:17:51.384Z,21.60
2023-05-22T17:20:19.022Z,21.52
2023-05-22T17:22:45.747Z,21.54
2023-05-22T17:25:13.754Z,21.51
2023-05-22T17:27:40.721Z,21.46
2023-05-22T17:30:08.658Z,21.35
2023-05-22T17:32:36.254Z,21.22
2023-05-22T17:35:03.379Z,21.26
2023-05-22T17:37:30.321Z,21.14
2023-05-22T17:39:57.346Z,20.87
2023-05-22T17:42:24.477Z,20.84
2023-05-22T17:44:51.366Z,20.80
2023-05-22T17:47:18.549Z,21.02
2023-05-22T17:49:45.569Z,21.00
2023-05-22T17:52:13.256Z,20.66
2023-05-22T17:54:40.096Z,20.65
2023-05-22T17:57:06.832Z,20.36
2023-05-22T17:59:33.812Z,20.18
2023-05-22T18:02:00.663Z,19.67
2023-05-22T18:04:27.457Z,19.79
2023-05-22T18:06:54.090Z,19.80
2023-05-22T18:09:20.964Z,19.77
2023-05-22T18:11:50.462Z,19.95
2023-05-22T18:14:17.284Z,19.84
2023-05-22T18:16:44.176Z,19.94
2023-05-22T18:19:10.988Z,19.76
2023-05-22T18:21:37.758Z,19.62
2023-05-22T18:24:04.751Z,19.71
2023-05-22T18:26:35.061Z,19.48
2023-05-22T18:29:01.949Z,19.56
2023-05-22T18:31:29.337Z,19.84
2023-05-22T18:33:56.178Z,19.68
2023-05-22T18:36:23.201Z,19.40
2023-05-22T18:38:50.234Z,19.62
2023-05-22T18:41:16.998Z,19.57
2023-05-22T18:43:44.017Z,19.68
2023-05-22T18:46:10.914Z,19.52
2023-05-22T18:48:37.799Z,19.66
2023-05-22T18:51:04.828Z,20.02
2023-05-22T18:53:31.881Z,19.56
2023-05-22T18:55:58.700Z,19.32
2023-05-22T18:58:25.862Z,19.99
2023-05-22T19:00:55.552Z,19.83
2023-05-22T19:03:22.430Z,20.04
2023-05-22T19:05:49.319Z,19.95
2023-05-22T19:08:16.141Z,19.77
2023-05-22T19:10:43.050Z,19.72
2023-05-22T19:13:10.236Z,20.09
2023-05-22T19:15:38.498Z,19.81
2023-05-22T19:18:05.643Z,19.75
2023-05-22T19:20:32.566Z,19.76
2023-05-22T19:22:59.403Z,19.87
2023-05-22T19:25:28.770Z,20.09
2023-05-22T19:27:56.821Z,19.17
2023-05-22T19:30:23.694Z,19.25
2023-05-22T19:32:50.595Z,19.07
2023-05-22T19:35:17.858Z,18.94
2023-05-22T19:37:44.727Z,18.93
2023-05-22T19:40:11.636Z,18.86
2023-05-22T19:42:41.212Z,18.75
2023-05-22T19:45:08.734Z,18.89
2023-05-22T19:47:35.730Z,18.72
2023-05-22T19:50:02.732Z,18.58
2023-05-22T19:52:29.625Z,18.49
2023-05-22T19:54:56.423Z,18.83
2023-05-22T19:57:23.220Z,18.54
2023-05-22T19:59:51.231Z,18.39
2023-05-22T20:02:18.139Z,18.43
2023-05-22T20:04:48.508Z,18.30
2023-05-22T20:07:15.805Z,18.08
2023-05-22T20:09:42.699Z,17.99
2023-05-22T20:12:10.624Z,17.74
2023-05-22T20:14:37.810Z,17.38
2023-05-22T20:17:04.847Z,17.39
2023-05-22T20:19:34.724Z,17.44
2023-05-22T20:22:02.398Z,17.47
2023-05-22T20:24:29.772Z,17.10
2023-05-22T20:26:57.982Z,17.16
2023-05-22T20:29:24.816Z,17.35
2023-05-22T20:31:54.700Z,17.26
2023-05-22T20:34:22.524Z,17.38
2023-05-22T20:36:49.501Z,17.52
2023-05-22T20:39:18.269Z,17.73
2023-05-22T20:41:46.467Z,17.65
2023-05-22T20:44:13.705Z,17.65
2023-05-22T20:46:40.688Z,17.87
2023-05-22T20:49:07.625Z,17.75
2023-05-22T20:51:34.520Z,17.48
2023-05-22T20:54:01.980Z,17.66
2023-05-22T20:56:30.192Z,17.41
2023-05-22T20:58:57.508Z,17.20
2023-05-22T21:01:25.077Z,16.78
2023-05-22T21:03:53.522Z,17.17
2023-05-22T21:06:20.821Z,17.18
2023-05-22T21:08:48.180Z,17.28
2023-05-22T21:11:15.931Z,17.33
2023-05-22T21:13:42.823Z,17.28
2023-05-22T21:16:10.248Z,17.02
2023-05-22T21:18:37.053Z,17.07
2023-05-22T21:21:03.935Z,17.13
2023-05-22T21:23:30.923Z,17.64
2023-05-22T21:25:57.967Z,17.05
2023-05-22T21:28:25.046Z,17.03
2023-05-22T21:30:52.141Z,17.12
2023-05-22T21:33:18.968Z,16.92
2023-05-22T21:35:46.238Z,16.92
2023-05-22T21:38:13.184Z,17.03
2023-05-22T21:40:42.230Z,17.03
2023-05-22T21:43:09.672Z,17.00
2023-05-22T21:45:37.402Z,17.13
2023-05-22T21:48:04.775Z,17.04
2023-05-22T21:50:31.916Z,16.93
2023-05-22T21:52:58.772Z,17.05
2023-05-22T21:55:25.659Z,16.65
2023-05-22T21:57:53.078Z,16.78
2023-05-22T22:00:19.996Z,16.99
2023-05-22T22:02:46.934Z,17.39
2023-05-22T22:05:14.104Z,17.35
2023-05-22T22:07:41.140Z,17.48
2023-05-22T22:10:08.534Z,17.61
2023-05-22T22:12:35.356Z,17.82
2023-05-22T22:15:02.594Z,17.85
2023-05-22T22:17:30.325Z,18.05
2023-05-22T22:19:57.508Z,17.80
2023-05-22T22:22:25.097Z,17.90
2023-05-22T22:24:52.185Z,17.83
2023-05-22T22:27:20.073Z,17.52
2023-05-22T22:29:48.189Z,17.58
2023-05-22T22:32:15.294Z,17.70
2023-05-22T22:34:43.445Z,17.29
2023-05-22T22:37:10.427Z,17.51
2023-05-22T22:39:37.437Z,17.53
2023-05-22T22:42:05.315Z,17.41
2023-05-22T22:44:32.505Z,17.70
2023-05-22T22:47:01.982Z,17.46
2023-05-22T22:49:28.972Z,17.08
2023-05-22T22:51:56.604Z,16.96
2023-05-22T22:54:24.172Z,17.43
2023-05-22T22:56:51.750Z,17.17
2023-05-22T22:59:18.726Z,17.52
2023-05-22T23:01:45.721Z,17.20
2023-05-22T23:04:14.085Z,17.13
2023-05-22T23:06:44.145Z,17.42
2023-05-22T23:09:11.384Z,17.26
2023-05-22T23:11:39.124Z,17.36
2023-05-22T23:14:08.555Z,17.20
2023-05-22T23:16:41.320Z,16.96
2023-05-22T23:19:09.295Z,17.31
2023-05-22T23:21:36.701Z,17.20
2023-05-22T23:24:04.932Z,17.34
2023-05-22T23:26:32.722Z,16.88
2023-05-22T23:29:00.747Z,17.22
2023-05-22T23:31:30.847Z,16.80
2023-05-22T23:33:58.643Z,16.74
2023-05-22T23:36:25.997Z,17.06
2023-05-22T23:38:53.053Z,16.82
2023-05-22T23:41:19.990Z,17.08
2023-05-22T23:43:47.657Z,16.98
2023-05-22T23:46:15.202Z,16.87
2023-05-22T23:48:42.712Z,16.59
2023-05-22T23:51:14.506Z,16.78
2023-05-22T23:53:42.606Z,17.01
2023-05-22T23:56:10.375Z,17.03
2023-05-22T23:58:38.269Z,16.46
